Time;durP1;ratioP1;P1;durP2;ratioP2;P2;SDS_P1;SDS_P2;PMS_P1;PMS_P2;Temp;Humidity;BMP_temperature;BMP_pressure;BME280_temperature;BME280_humidity;BME280_pressure;Samples;Min_cycle;Max_cycle;Signal;HPM_P1;HPM_P2
2023/05/10 00:02:09;;;;;;;16.00;12.33;;;11.50;99.90;;;;;;5032649;28;20307;-75
2023/05/10 00:04:35;;;;;;;16.97;13.13;;;11.50;99.90;;;;;;5049150;28;20769;-75
2023/05/10 00:07:01;;;;;;;9.77;8.67;;;11.60;99.90;;;;;;5023835;28;20037;-75
2023/05/10 00:09:27;;;;;;;9.30;8.03;;;11.50;99.90;;;;;;5023542;28;20049;-75
2023/05/10 00:11:53;;;;;;;8.00;7.20;;;11.60;99.90;;;;;;5031501;28;20364;-75
2023/05/10 00:14:18;;;;;;;8.53;7.00;;;11.60;99.90;;;;;;5045165;28;20307;-75
2023/05/10 00:16:44;;;;;;;8.63;7.30;;;11.50;99.90;;;;;;5047806;28;20669;-75
2023/05/10 00:19:10;;;;;;;9.40;8.23;;;11.50;99.90;;;;;;5044240;28;20497;-75
2023/05/10 00:21:36;;;;;;;9.60;7.87;;;11.50;99.90;;;;;;5030899;28;20089;-75
2023/05/10 00:24:02;;;;;;;11.53;9.20;;;11.50;99.90;;;;;;5024689;28;20041;-74
2023/05/10 00:26:27;;;;;;;10.13;8.23;;;11.50;99.90;;;;;;5042873;28;20382;-75
2023/05/10 00:28:53;;;;;;;15.10;10.33;;;11.50;99.90;;;;;;5030592;28;20109;-75
2023/05/10 00:31:19;;;;;;;16.27;11.07;;;11.50;99.90;;;;;;5025199;28;20037;-74
2023/05/10 00:33:45;;;;;;;17.63;10.93;;;11.60;99.90;;;;;;5025965;28;20378;-74
2023/05/10 00:36:10;;;;;;;15.50;9.87;;;11.60;99.90;;;;;;5024794;28;20048;-75
2023/05/10 00:38:36;;;;;;;19.23;11.60;;;11.50;99.90;;;;;;5036785;28;20360;-75
2023/05/10 00:41:02;;;;;;;17.97;11.60;;;11.60;99.90;;;;;;5041977;28;20560;-75
2023/05/10 00:43:28;;;;;;;18.20;11.50;;;11.60;99.90;;;;;;5036316;28;20061;-75
2023/05/10 00:45:54;;;;;;;18.67;11.17;;;11.60;99.90;;;;;;5023071;28;20065;-75
2023/05/10 00:48:20;;;;;;;18.47;10.53;;;11.60;99.90;;;;;;5041414;28;20037;-75
2023/05/10 00:50:47;;;;;;;21.00;10.60;;;11.60;99.90;;;;;;5018662;28;20288;-74
2023/05/10 00:53:12;;;;;;;22.67;11.00;;;11.60;99.90;;;;;;5020153;28;20630;-75
2023/05/10 00:55:38;;;;;;;32.30;13.97;;;11.60;99.90;;;;;;5037639;28;20357;-75
2023/05/10 00:58:04;;;;;;;36.73;15.63;;;11.60;99.90;;;;;;5039386;28;20099;-75
2023/05/10 01:00:31;;;;;;;47.60;16.87;;;11.60;99.90;;;;;;5046047;28;20124;-75
2023/05/10 01:02:58;;;;;;;39.53;15.80;;;11.60;99.90;;;;;;5018460;28;20886;-75
2023/05/10 01:05:24;;;;;;;45.43;17.33;;;11.60;99.90;;;;;;5042695;28;20288;-74
2023/05/10 01:07:50;;;;;;;45.93;17.13;;;11.60;99.90;;;;;;5031894;28;20309;-73
2023/05/10 01:10:16;;;;;;;37.87;17.13;;;11.60;99.90;;;;;;5037457;28;20288;-73
2023/05/10 01:12:45;;;;;;;47.87;18.73;;;11.60;99.90;;;;;;5018865;28;20822;-72
2023/05/10 01:15:12;;;;;;;47.30;18.53;;;11.60;99.90;;;;;;5038706;28;20052;-73
2023/05/10 01:17:40;;;;;;;46.73;18.90;;;11.60;99.90;;;;;;5021572;28;20284;-72
2023/05/10 01:20:10;;;;;;;42.40;18.60;;;11.50;99.90;;;;;;5037725;28;20364;-72
2023/05/10 01:22:54;;;;;;;55.20;18.90;;;11.60;99.90;;;;;;5022587;28;20380;-72
2023/05/10 01:25:44;;;;;;;54.83;19.17;;;11.60;99.90;;;;;;5028786;28;20367;-73
2023/05/10 01:28:13;;;;;;;44.67;18.53;;;11.60;99.90;;;;;;5024535;28;20976;-73
2023/05/10 01:31:01;;;;;;;45.93;17.63;;;11.60;99.90;;;;;;5044848;28;20275;-72
2023/05/10 01:33:30;;;;;;;48.40;18.07;;;11.60;99.90;;;;;;5022943;28;20272;-72
2023/05/10 01:36:07;;;;;;;42.57;20.53;;;11.50;99.90;;;;;;5044878;28;20287;-72
2023/05/10 01:38:50;;;;;;;39.13;21.57;;;11.60;99.90;;;;;;5027112;28;20382;-72
2023/05/10 01:41:21;;;;;;;38.97;21.23;;;11.60;99.90;;;;;;5028529;28;20986;-72
2023/05/10 01:43:55;;;;;;;38.27;22.20;;;11.60;99.90;;;;;;5044173;28;20315;-72
2023/05/10 01:46:38;;;;;;;39.30;22.38;;;11.60;99.90;;;;;;5027901;28;20287;-72
2023/05/10 01:49:08;;;;;;;40.87;20.53;;;11.60;99.90;;;;;;5044056;28;20511;-72
2023/05/10 01:52:05;;;;;;;43.27;19.97;;;11.60;99.90;;;;;;5021385;28;20869;-72
2023/05/10 01:54:33;;;;;;;37.83;19.37;;;11.60;99.90;;;;;;5022258;28;20291;-72
2023/05/10 01:57:05;;;;;;;45.63;19.23;;;11.60;99.90;;;;;;5025058;28;20316;-72
2023/05/10 01:59:36;;;;;;;38.13;16.53;;;11.60;99.90;;;;;;5021036;28;20319;-72
2023/05/10 02:02:02;;;;;;;44.90;19.30;;;11.60;99.90;;;;;;5030766;28;20337;-73
2023/05/10 02:04:29;;;;;;;41.60;18.87;;;11.60;99.90;;;;;;5035122;28;21013;-74
2023/05/10 02:06:55;;;;;;;53.83;20.57;;;11.60;99.90;;;;;;5046784;28;20789;-73
2023/05/10 02:09:22;;;;;;;38.83;18.57;;;11.60;99.90;;;;;;5032204;28;20345;-73
2023/05/10 02:11:48;;;;;;;33.70;17.37;;;11.60;99.90;;;;;;5022532;28;20284;-73
2023/05/10 02:14:16;;;;;;;34.37;16.63;;;11.60;99.90;;;;;;5019276;28;20279;-73
2023/05/10 02:16:44;;;;;;;28.00;15.77;;;11.50;99.90;;;;;;5020711;28;20318;-73
2023/05/10 02:19:11;;;;;;;31.07;16.90;;;11.60;99.90;;;;;;5027226;28;20287;-73
2023/05/10 02:21:39;;;;;;;27.90;15.67;;;11.60;99.90;;;;;;5025002;28;20299;-73
2023/05/10 02:24:06;;;;;;;35.67;17.13;;;11.60;99.90;;;;;;5035510;28;20311;-73
2023/05/10 02:26:34;;;;;;;33.27;16.03;;;11.50;99.90;;;;;;5036128;28;20294;-73
2023/05/10 02:29:03;;;;;;;28.70;14.83;;;11.50;99.90;;;;;;5040350;28;20345;-73
2023/05/10 02:31:35;;;;;;;34.97;16.07;;;11.50;99.90;;;;;;5036256;28;20315;-73
2023/05/10 02:34:02;;;;;;;33.43;15.40;;;11.50;99.90;;;;;;5028597;28;20295;-73
2023/05/10 02:36:29;;;;;;;30.07;14.40;;;11.50;99.90;;;;;;5039038;28;20284;-73
2023/05/10 02:38:56;;;;;;;32.63;14.97;;;11.50;99.90;;;;;;5024519;28;20327;-73
2023/05/10 02:41:24;;;;;;;35.50;16.13;;;11.50;99.90;;;;;;5044168;28;20314;-73
2023/05/10 02:43:52;;;;;;;30.47;15.87;;;11.50;99.90;;;;;;5041482;28;20275;-70
2023/05/10 02:46:18;;;;;;;25.73;14.13;;;11.50;99.90;;;;;;5046558;28;20284;-70
2023/05/10 02:48:44;;;;;;;24.43;14.77;;;11.50;99.90;;;;;;5027214;28;20280;-70
2023/05/10 02:51:12;;;;;;;25.93;14.30;;;11.50;99.90;;;;;;5047189;28;20298;-70
2023/05/10 02:53:40;;;;;;;25.50;14.20;;;11.50;99.90;;;;;;5046502;28;20033;-70
2023/05/10 02:56:15;;;;;;;33.67;15.67;;;11.50;99.90;;;;;;5046772;28;20652;-70
2023/05/10 02:58:40;;;;;;;22.73;13.88;;;11.50;99.90;;;;;;5040544;28;20640;-70
2023/05/10 03:01:07;;;;;;;18.00;13.93;;;11.50;99.90;;;;;;5041917;28;20037;-70
2023/05/10 03:03:33;;;;;;;17.97;13.17;;;11.50;99.90;;;;;;5038889;28;20037;-70
2023/05/10 03:05:59;;;;;;;16.67;12.60;;;11.50;99.90;;;;;;5045362;28;20326;-70
2023/05/10 03:08:25;;;;;;;17.33;12.80;;;11.50;99.90;;;;;;5029398;28;20029;-70
2023/05/10 03:11:10;;;;;;;14.87;11.70;;;11.50;99.90;;;;;;5029918;28;20048;-70
2023/05/10 03:13:50;;;;;;;13.75;11.75;;;11.50;99.90;;;;;;5030033;28;20279;-70
2023/05/10 03:16:24;;;;;;;15.97;12.30;;;11.50;99.90;;;;;;5045305;28;20536;-70
2023/05/10 03:19:03;;;;;;;14.57;12.10;;;11.50;99.90;;;;;;5044927;28;20282;-70
2023/05/10 03:21:31;;;;;;;13.63;10.63;;;11.50;99.90;;;;;;5038751;28;20354;-70
2023/05/10 03:24:06;;;;;;;14.53;10.87;;;11.50;99.90;;;;;;5037332;28;20284;-70
2023/05/10 03:26:32;;;;;;;;;;;11.60;99.90;;;;;;5038896;28;20382;-70
2023/05/10 03:28:59;;;;;;;11.70;10.20;;;11.50;99.90;;;;;;5026485;28;19928;-70
2023/05/10 03:31:25;;;;;;;11.83;10.23;;;11.50;99.90;;;;;;5022202;28;20660;-70
2023/05/10 03:33:52;;;;;;;13.33;10.17;;;11.50;99.90;;;;;;5045503;28;20410;-70
2023/05/10 03:36:18;;;;;;;11.00;9.63;;;11.50;99.90;;;;;;5028653;28;20268;-70
2023/05/10 03:38:45;;;;;;;11.13;9.80;;;11.50;99.90;;;;;;5029747;28;20280;-70
2023/05/10 03:41:10;;;;;;;10.77;9.50;;;11.50;99.90;;;;;;5044705;28;20290;-70
2023/05/10 03:43:36;;;;;;;12.60;10.63;;;11.50;99.90;;;;;;5059422;28;20275;-70
2023/05/10 03:46:06;;;;;;;11.23;10.03;;;11.50;99.90;;;;;;5025504;28;20041;-70
2023/05/10 03:48:34;;;;;;;11.03;9.87;;;11.50;99.90;;;;;;5049631;28;20033;-70
2023/05/10 03:51:00;;;;;;;10.73;9.67;;;11.50;99.90;;;;;;5028939;28;20284;-70
2023/05/10 03:53:26;;;;;;;13.00;10.30;;;11.50;99.90;;;;;;5046606;28;20387;-70
2023/05/10 03:55:52;;;;;;;10.43;9.17;;;11.50;99.90;;;;;;5045258;28;20056;-70
2023/05/10 03:58:18;;;;;;;12.13;9.37;;;11.50;99.90;;;;;;5025778;28;20287;-70
2023/05/10 04:00:45;;;;;;;10.50;9.40;;;11.50;99.90;;;;;;5046230;28;20504;-70
2023/05/10 04:03:14;;;;;;;13.00;9.90;;;11.50;99.90;;;;;;5032559;28;20102;-70
2023/05/10 04:05:40;;;;;;;9.83;8.73;;;11.50;99.90;;;;;;5020931;28;20288;-70
2023/05/10 04:08:06;;;;;;;10.90;9.20;;;11.50;99.90;;;;;;5047837;28;20279;-70
2023/05/10 04:10:32;;;;;;;10.57;9.47;;;11.50;99.90;;;;;;5046919;28;20772;-70
2023/05/10 04:12:58;;;;;;;11.17;9.00;;;11.50;99.90;;;;;;5023042;28;20290;-70
2023/05/10 04:15:23;;;;;;;10.23;9.23;;;11.50;99.90;;;;;;5046345;28;20074;-70
2023/05/10 04:17:50;;;;;;;11.50;9.00;;;11.50;99.90;;;;;;5048785;28;20145;-70
2023/05/10 04:20:15;;;;;;;10.63;9.47;;;11.50;99.90;;;;;;5044699;28;20041;-70
2023/05/10 04:22:41;;;;;;;11.90;9.30;;;11.50;99.90;;;;;;5047294;28;20319;-70
2023/05/10 04:25:07;;;;;;;11.37;8.93;;;11.50;99.90;;;;;;5043046;28;20045;-70
2023/05/10 04:27:33;;;;;;;10.43;9.07;;;11.50;99.90;;;;;;5048226;28;20064;-70
2023/05/10 04:29:59;;;;;;;10.13;8.80;;;11.60;99.90;;;;;;5048409;28;20763;-70
2023/05/10 04:32:25;;;;;;;9.47;8.57;;;11.60;99.90;;;;;;5029518;28;20071;-70
2023/05/10 04:34:52;;;;;;;9.30;8.30;;;11.60;99.90;;;;;;5029988;28;20452;-71
2023/05/10 04:37:17;;;;;;;9.03;7.97;;;11.60;99.90;;;;;;5021140;28;20395;-71
2023/05/10 04:39:43;;;;;;;8.97;7.47;;;11.60;99.90;;;;;;5021549;28;20303;-71
2023/05/10 04:42:09;;;;;;;7.83;7.00;;;11.60;99.90;;;;;;5039641;28;20044;-71
2023/05/10 04:44:35;;;;;;;7.40;6.70;;;11.60;99.90;;;;;;5049355;28;20755;-71
2023/05/10 04:47:02;;;;;;;9.00;7.47;;;11.60;99.90;;;;;;5032886;28;20408;-71
2023/05/10 04:49:29;;;;;;;8.83;7.43;;;11.60;99.90;;;;;;5048809;28;20279;-71
2023/05/10 04:51:55;;;;;;;9.03;7.47;;;11.60;99.90;;;;;;5042968;28;20767;-71
2023/05/10 04:54:20;;;;;;;7.93;7.10;;;11.60;99.90;;;;;;5048791;28;20295;-71
2023/05/10 04:56:46;;;;;;;8.07;7.27;;;11.60;99.90;;;;;;5045552;28;20068;-71
2023/05/10 04:59:12;;;;;;;9.37;7.87;;;11.70;99.90;;;;;;5030563;28;20049;-71
2023/05/10 05:01:38;;;;;;;9.77;8.40;;;11.70;99.90;;;;;;5046369;28;20041;-71
2023/05/10 05:04:04;;;;;;;9.50;7.40;;;11.70;99.90;;;;;;5029208;28;20069;-71
2023/05/10 05:06:29;;;;;;;9.57;7.60;;;11.70;99.90;;;;;;5046683;28;20029;-71
2023/05/10 05:08:55;;;;;;;8.13;7.33;;;11.70;99.90;;;;;;5028165;28;20044;-71
2023/05/10 05:11:21;;;;;;;10.20;8.40;;;11.70;99.90;;;;;;5030801;28;20037;-72
2023/05/10 05:13:46;;;;;;;9.70;8.10;;;11.70;99.90;;;;;;5031237;28;20631;-71
2023/05/10 05:16:12;;;;;;;10.57;8.00;;;11.80;99.90;;;;;;5050685;28;20045;-71
2023/05/10 05:18:38;;;;;;;9.70;8.00;;;11.80;99.90;;;;;;5036710;28;20053;-71
2023/05/10 05:21:14;;;;;;;10.47;7.57;;;11.80;99.90;;;;;;5041827;28;20041;-71
2023/05/10 05:23:40;;;;;;;9.87;8.23;;;11.80;99.90;;;;;;5024844;28;20128;-71
2023/05/10 05:26:06;;;;;;;10.57;8.53;;;11.80;99.90;;;;;;5031454;28;20354;-72
2023/05/10 05:28:34;;;;;;;11.63;8.20;;;11.80;99.90;;;;;;5026934;28;20064;-71
2023/05/10 05:31:00;;;;;;;9.47;8.00;;;11.80;99.90;;;;;;5025327;28;20048;-71
2023/05/10 05:33:26;;;;;;;10.27;7.70;;;11.80;99.90;;;;;;5028169;28;20819;-72
2023/05/10 05:35:52;;;;;;;9.47;7.70;;;11.80;99.90;;;;;;5024507;28;20531;-72
2023/05/10 05:38:17;;;;;;;9.10;7.37;;;11.80;99.90;;;;;;5025750;28;20045;-72
2023/05/10 05:40:43;;;;;;;7.67;6.37;;;11.80;99.90;;;;;;5020051;28;20082;-72
2023/05/10 05:43:09;;;;;;;8.67;5.63;;;11.80;99.90;;;;;;5021316;28;20167;-72
2023/05/10 05:45:34;;;;;;;8.87;5.53;;;11.80;99.90;;;;;;5040159;28;20568;-71
2023/05/10 05:48:00;;;;;;;8.97;5.83;;;11.80;99.90;;;;;;5025350;28;20037;-71
2023/05/10 05:50:26;;;;;;;11.40;6.57;;;11.90;99.90;;;;;;5026516;28;20071;-72
2023/05/10 05:52:51;;;;;;;8.47;6.37;;;11.90;99.90;;;;;;5030616;28;20284;-71
2023/05/10 05:55:17;;;;;;;10.70;6.70;;;11.90;99.90;;;;;;5030198;28;20539;-71
2023/05/10 05:57:43;;;;;;;8.47;6.17;;;11.90;99.90;;;;;;5046982;28;20049;-71
2023/05/10 06:00:09;;;;;;;13.83;6.87;;;12.00;99.90;;;;;;5039208;28;20151;-71
2023/05/10 06:02:35;;;;;;;11.73;7.07;;;12.00;99.90;;;;;;5043186;28;20033;-72
2023/05/10 06:05:00;;;;;;;9.50;6.87;;;12.00;99.90;;;;;;5044944;28;20353;-71
2023/05/10 06:07:26;;;;;;;11.70;7.30;;;12.00;99.90;;;;;;5028019;28;20550;-71
2023/05/10 06:09:52;;;;;;;8.90;6.37;;;12.10;99.90;;;;;;5029953;28;20535;-72
2023/05/10 06:12:17;;;;;;;11.07;5.90;;;12.10;99.90;;;;;;5047257;28;20052;-72
2023/05/10 06:14:43;;;;;;;9.77;6.53;;;12.00;99.90;;;;;;5030143;28;20094;-72
2023/05/10 06:17:09;;;;;;;12.43;7.43;;;12.00;99.90;;;;;;5029371;28;20052;-72
2023/05/10 06:19:35;;;;;;;12.17;7.27;;;11.90;99.90;;;;;;5026983;28;20619;-72
2023/05/10 06:22:01;;;;;;;8.50;6.13;;;11.80;99.90;;;;;;5024748;28;20092;-72
2023/05/10 06:24:27;;;;;;;10.27;5.90;;;11.90;99.90;;;;;;5041710;28;20821;-72
2023/05/10 06:26:53;;;;;;;11.87;5.20;;;11.80;99.90;;;;;;5028790;28;20049;-72
2023/05/10 06:29:18;;;;;;;10.93;5.23;;;11.80;99.90;;;;;;5025670;28;20291;-72
2023/05/10 06:31:44;;;;;;;7.97;4.43;;;11.90;99.90;;;;;;5042999;28;20045;-72
2023/05/10 06:34:11;;;;;;;7.97;4.90;;;11.90;99.90;;;;;;5044025;28;20049;-72
2023/05/10 06:36:37;;;;;;;8.13;4.80;;;11.90;99.90;;;;;;5035029;28;20122;-72
2023/05/10 06:39:03;;;;;;;12.63;5.10;;;12.00;99.90;;;;;;5025750;28;20287;-72
2023/05/10 06:41:28;;;;;;;11.80;5.20;;;12.00;99.90;;;;;;5030425;28;20493;-71
2023/05/10 06:43:54;;;;;;;11.17;5.70;;;12.00;99.90;;;;;;5022853;28;20191;-71
2023/05/10 06:46:20;;;;;;;12.70;4.73;;;12.00;99.90;;;;;;5026865;28;20040;-71
2023/05/10 06:48:45;;;;;;;11.93;4.70;;;12.00;99.90;;;;;;5029356;28;20627;-71
2023/05/10 06:51:11;;;;;;;10.57;4.77;;;11.90;99.90;;;;;;5025110;28;20034;-71
2023/05/10 06:53:37;;;;;;;11.90;5.20;;;11.90;99.90;;;;;;5046293;28;20049;-72
2023/05/10 06:56:03;;;;;;;10.80;4.73;;;11.80;99.90;;;;;;5030114;28;20475;-72
2023/05/10 06:58:28;;;;;;;10.10;3.90;;;11.80;99.90;;;;;;5030443;28;20037;-72
2023/05/10 07:00:54;;;;;;;9.93;4.23;;;11.80;99.90;;;;;;5026147;28;20036;-72
2023/05/10 07:03:20;;;;;;;9.67;4.33;;;11.80;99.90;;;;;;5045787;28;20090;-73
2023/05/10 07:05:45;;;;;;;10.00;3.90;;;11.80;99.90;;;;;;5047959;28;20040;-72
2023/05/10 07:08:11;;;;;;;8.33;4.23;;;11.80;99.90;;;;;;5028885;28;20041;-72
2023/05/10 07:10:37;;;;;;;9.33;3.90;;;11.80;99.90;;;;;;5030345;28;20124;-72
2023/05/10 07:13:03;;;;;;;7.07;3.57;;;11.90;99.90;;;;;;5042769;28;20036;-72
2023/05/10 07:15:29;;;;;;;7.00;3.57;;;12.00;99.90;;;;;;5026196;28;20687;-72
2023/05/10 07:17:55;;;;;;;6.17;3.40;;;11.90;99.90;;;;;;5050099;28;20044;-72
2023/05/10 07:20:20;;;;;;;6.37;3.27;;;12.00;99.90;;;;;;5030578;28;20116;-72
2023/05/10 07:22:46;;;;;;;5.10;2.70;;;12.00;99.90;;;;;;5048280;28;20374;-72
2023/05/10 07:25:12;;;;;;;5.27;2.57;;;12.00;99.90;;;;;;5047184;28;20045;-71
2023/05/10 07:27:37;;;;;;;4.40;2.40;;;12.00;99.90;;;;;;5030171;28;20579;-73
2023/05/10 07:30:04;;;;;;;5.23;2.20;;;12.00;99.90;;;;;;5027817;28;20069;-72
2023/05/10 07:32:30;;;;;;;4.47;2.13;;;12.10;99.90;;;;;;5047310;28;20060;-71
2023/05/10 07:34:56;;;;;;;3.70;2.07;;;12.00;99.90;;;;;;5046888;28;20776;-72
2023/05/10 07:37:21;;;;;;;4.17;2.77;;;12.10;99.90;;;;;;5033523;28;20382;-73
2023/05/10 07:39:47;;;;;;;4.40;2.53;;;12.10;99.90;;;;;;5039948;28;20398;-72
2023/05/10 07:42:13;;;;;;;4.10;2.60;;;12.10;99.90;;;;;;5033867;28;20142;-72
2023/05/10 07:44:38;;;;;;;4.33;2.77;;;12.20;99.90;;;;;;5047276;28;20037;-73
2023/05/10 07:47:04;;;;;;;4.60;2.80;;;12.20;99.90;;;;;;5046123;28;20037;-73
2023/05/10 07:49:30;;;;;;;6.50;3.30;;;12.30;99.90;;;;;;5048063;28;20555;-72
2023/05/10 07:51:55;;;;;;;5.53;3.67;;;12.30;99.90;;;;;;5043003;28;20080;-72
2023/05/10 07:54:21;;;;;;;5.10;3.27;;;12.30;99.90;;;;;;5029794;28;20505;-72
2023/05/10 07:56:47;;;;;;;6.27;4.20;;;12.30;99.90;;;;;;5049350;28;20080;-73
2023/05/10 07:59:17;;;;;;;6.03;3.83;;;12.40;99.90;;;;;;5022449;28;20125;-73
2023/05/10 08:01:44;;;;;;;5.63;3.47;;;12.40;99.90;;;;;;5047278;28;20123;-72
2023/05/10 08:04:09;;;;;;;7.17;4.20;;;12.40;99.90;;;;;;5030451;28;20286;-72
2023/05/10 08:06:35;;;;;;;7.10;4.17;;;12.40;99.90;;;;;;5045565;28;20283;-73
2023/05/10 08:09:01;;;;;;;5.30;4.37;;;12.50;99.90;;;;;;5046055;28;20502;-73
2023/05/10 08:11:27;;;;;;;8.20;4.50;;;12.40;99.90;;;;;;5020028;28;20036;-73
2023/05/10 08:13:53;;;;;;;7.97;4.63;;;12.40;99.90;;;;;;5028389;28;20041;-73
2023/05/10 08:16:19;;;;;;;6.23;4.30;;;12.50;99.90;;;;;;5033584;28;20292;-72
2023/05/10 08:18:46;;;;;;;7.60;5.10;;;12.60;99.90;;;;;;5033296;28;20363;-72
2023/05/10 08:21:15;;;;;;;7.70;5.20;;;12.70;99.90;;;;;;5041068;28;20048;-73
2023/05/10 08:23:41;;;;;;;9.00;5.10;;;12.70;99.90;;;;;;5029274;28;20390;-73
2023/05/10 08:26:07;;;;;;;9.00;5.27;;;12.80;99.90;;;;;;5032520;28;20292;-73
2023/05/10 08:28:32;;;;;;;8.43;5.27;;;12.90;99.90;;;;;;5021183;28;20095;-72
2023/05/10 08:30:58;;;;;;;6.27;5.00;;;13.00;99.90;;;;;;5025508;28;20269;-71
2023/05/10 08:33:24;;;;;;;7.60;4.97;;;13.20;99.90;;;;;;5042161;28;20109;-70
2023/05/10 08:35:50;;;;;;;6.67;4.70;;;13.40;99.90;;;;;;5027350;28;20115;-70
2023/05/10 08:38:16;;;;;;;7.93;4.77;;;13.50;99.90;;;;;;5046216;28;20881;-70
2023/05/10 08:40:43;;;;;;;8.60;5.07;;;13.60;99.90;;;;;;5042712;28;20041;-72
2023/05/10 08:43:11;;;;;;;7.70;5.20;;;13.70;99.90;;;;;;5025606;28;20115;-71
2023/05/10 08:45:38;;;;;;;5.97;4.40;;;13.80;99.90;;;;;;5041502;28;20690;-71
2023/05/10 08:48:06;;;;;;;6.37;4.40;;;13.90;99.90;;;;;;5045653;28;20704;-71
2023/05/10 08:50:37;;;;;;;6.00;4.43;;;13.90;99.90;;;;;;5048887;28;20353;-71
2023/05/10 08:53:13;;;;;;;6.40;4.43;;;14.00;99.90;;;;;;5043319;28;20999;-71
2023/05/10 08:55:40;;;;;;;5.53;3.87;;;14.00;99.90;;;;;;5031437;28;20300;-71
2023/05/10 08:58:06;;;;;;;6.47;4.40;;;14.10;99.90;;;;;;5028934;28;20818;-71
2023/05/10 09:00:32;;;;;;;6.87;4.83;;;14.10;99.90;;;;;;5028574;28;20307;-71
2023/05/10 09:02:59;;;;;;;6.83;5.07;;;14.10;99.90;;;;;;5027527;28;20326;-71
2023/05/10 09:05:24;;;;;;;5.80;4.60;;;14.10;99.90;;;;;;5023796;28;20284;-71
2023/05/10 09:07:50;;;;;;;7.37;4.97;;;14.20;99.90;;;;;;5046486;28;20271;-71
2023/05/10 09:10:16;;;;;;;8.40;5.07;;;14.30;99.90;;;;;;5048115;28;20043;-71
2023/05/10 09:12:45;;;;;;;6.50;5.37;;;14.30;99.90;;;;;;5046897;28;20047;-71
2023/05/10 09:15:11;;;;;;;7.70;4.87;;;14.30;99.90;;;;;;5042779;28;20287;-71
2023/05/10 09:17:40;;;;;;;6.70;5.80;;;14.40;99.90;;;;;;5043501;28;20767;-71
2023/05/10 09:20:07;;;;;;;6.50;4.77;;;14.40;99.90;;;;;;5048415;28;20748;-71
2023/05/10 09:22:33;;;;;;;7.50;4.50;;;14.60;99.90;;;;;;5047515;28;20307;-71
2023/05/10 09:25:16;;;;;;;5.93;4.40;;;14.70;99.90;;;;;;5043110;28;20365;-71
2023/05/10 09:27:46;;;;;;;8.53;5.40;;;14.90;99.90;;;;;;5036617;28;20347;-71
2023/05/10 09:30:16;;;;;;;8.57;5.97;;;14.80;99.90;;;;;;5030924;28;20311;-71
2023/05/10 09:32:47;;;;;;;7.87;5.60;;;14.90;99.90;;;;;;5045166;28;20471;-72
2023/05/10 09:35:15;;;;;;;6.43;5.17;;;14.90;99.90;;;;;;5045381;28;20289;-71
2023/05/10 09:37:43;;;;;;;7.10;5.40;;;14.90;99.90;;;;;;5038435;28;20295;-71
2023/05/10 09:40:17;;;;;;;7.73;5.53;;;15.00;99.90;;;;;;5040650;28;20287;-71
2023/05/10 09:42:55;;;;;;;9.02;6.20;;;15.10;99.90;;;;;;5041084;28;20537;-71
2023/05/10 09:45:25;;;;;;;8.40;6.40;;;15.30;99.90;;;;;;5061777;28;20033;-71
2023/05/10 09:47:51;;;;;;;10.30;6.97;;;15.30;99.90;;;;;;5039186;28;20871;-71
2023/05/10 09:50:17;;;;;;;11.27;8.10;;;15.30;99.90;;;;;;5047256;28;20358;-71
2023/05/10 09:52:53;;;;;;;9.10;7.57;;;15.10;99.90;;;;;;5024474;28;20114;-71
2023/05/10 09:55:21;;;;;;;11.97;9.20;;;14.90;99.90;;;;;;5062326;28;20456;-71
2023/05/10 09:57:48;;;;;;;12.27;8.87;;;14.80;99.90;;;;;;5039188;28;20283;-71
2023/05/10 10:00:20;;;;;;;13.77;8.87;;;14.80;99.90;;;;;;5038702;28;20635;-71
2023/05/10 10:02:57;;;;;;;12.50;8.23;;;14.70;99.90;;;;;;5021326;28;20310;-71
2023/05/10 10:05:34;;;;;;;12.33;7.77;;;14.70;99.90;;;;;;5039597;28;20846;-71
2023/05/10 10:08:02;;;;;;;10.73;8.10;;;14.70;99.90;;;;;;5027873;28;20370;-71
2023/05/10 10:10:29;;;;;;;10.13;7.33;;;14.80;99.90;;;;;;5026942;28;20337;-71
2023/05/10 10:12:55;;;;;;;11.60;7.07;;;14.80;99.90;;;;;;5037157;28;20319;-71
2023/05/10 10:15:22;;;;;;;11.07;7.77;;;14.90;99.90;;;;;;5033183;28;20469;-71
2023/05/10 10:17:49;;;;;;;9.50;7.57;;;15.00;99.90;;;;;;5041899;28;20084;-71
2023/05/10 10:20:16;;;;;;;10.63;8.13;;;15.30;99.90;;;;;;5040186;28;20709;-71
2023/05/10 10:22:43;;;;;;;8.87;7.17;;;15.60;99.90;;;;;;5040862;28;20304;-71
2023/05/10 10:25:11;;;;;;;11.17;7.87;;;15.80;99.90;;;;;;5026776;28;20283;-71
2023/05/10 10:27:52;;;;;;;9.17;7.83;;;15.90;99.90;;;;;;5039265;28;20298;-71
2023/05/10 10:30:36;;;;;;;10.20;7.53;;;16.00;99.90;;;;;;5045169;28;20299;-71
2023/05/10 10:33:47;;;;;;;10.60;7.57;;;16.10;99.90;;;;;;5046935;28;20283;-71
2023/05/10 10:36:13;;;;;;;8.80;7.07;;;16.30;99.90;;;;;;5018050;28;20299;-73
2023/05/10 10:38:48;;;;;;;10.27;7.90;;;16.30;99.90;;;;;;5022815;28;20288;-73
2023/05/10 10:41:32;;;;;;;9.07;7.20;;;16.50;99.90;;;;;;5043627;28;20275;-73
2023/05/10 10:44:24;;;;;;;9.23;7.10;;;16.60;99.90;;;;;;5045864;28;20520;-73
2023/05/10 10:47:07;;;;;;;8.77;6.23;;;16.80;99.90;;;;;;5029429;28;20290;-73
2023/05/10 10:49:43;;;;;;;7.80;6.37;;;17.00;99.90;;;;;;5029745;28;20272;-73
2023/05/10 10:52:32;;;;;;;9.00;6.60;;;16.90;99.90;;;;;;5036177;28;20279;-73
2023/05/10 10:55:14;;;;;;;8.83;6.43;;;16.80;99.90;;;;;;5030562;28;20735;-73
2023/05/10 10:57:40;;;;;;;10.23;8.00;;;16.60;99.90;;;;;;5052340;28;20437;-73
2023/05/10 11:00:44;;;;;;;11.53;7.80;;;16.40;99.90;;;;;;5048259;28;20375;-73
2023/05/10 11:03:16;;;;;;;12.80;8.20;;;16.20;99.90;;;;;;5021046;28;20057;-72
2023/05/10 11:05:49;;;;;;;13.27;8.60;;;16.30;99.90;;;;;;5036345;28;20684;-72
2023/05/10 11:08:26;;;;;;;11.53;9.07;;;16.30;99.90;;;;;;5041090;28;20279;-73
2023/05/10 11:11:14;;;;;;;13.73;8.90;;;16.40;99.90;;;;;;5052226;28;20279;-73
2023/05/10 11:13:45;;;;;;;10.83;8.37;;;16.40;99.90;;;;;;5050883;28;20615;-73
2023/05/10 11:16:16;;;;;;;10.33;7.83;;;16.40;99.90;;;;;;5044484;28;20811;-73
2023/05/10 11:19:13;;;;;;;10.60;7.83;;;16.50;99.90;;;;;;5025566;28;20287;-73
2023/05/10 11:21:49;;;;;;;8.47;7.03;;;16.70;99.90;;;;;;5021369;28;20275;-73
2023/05/10 11:24:18;;;;;;;10.27;7.50;;;16.70;99.90;;;;;;5029243;28;20663;-72
2023/05/10 11:26:44;;;;;;;10.43;7.20;;;16.80;99.90;;;;;;5031616;28;20114;-73
2023/05/10 11:29:10;;;;;;;8.60;6.70;;;16.80;99.90;;;;;;5034889;28;20287;-72
2023/05/10 11:31:43;;;;;;;8.60;6.70;;;16.80;99.90;;;;;;5040766;28;20028;-73
2023/05/10 11:34:09;;;;;;;8.87;7.30;;;16.80;99.90;;;;;;5024742;28;20072;-72
2023/05/10 11:36:36;;;;;;;9.37;7.20;;;16.60;99.90;;;;;;5031189;28;20929;-72
2023/05/10 11:39:03;;;;;;;11.63;7.30;;;16.60;99.90;;;;;;5028393;28;20048;-71
2023/05/10 11:41:29;;;;;;;9.20;7.07;;;16.50;99.90;;;;;;5046483;28;20846;-71
2023/05/10 11:43:56;;;;;;;8.93;6.63;;;16.60;99.90;;;;;;5044863;28;20288;-71
2023/05/10 11:46:27;;;;;;;8.07;6.33;;;16.60;99.90;;;;;;5039831;28;20280;-71
2023/05/10 11:49:00;;;;;;;8.13;6.77;;;16.60;99.90;;;;;;5028259;28;20370;-72
2023/05/10 11:51:26;;;;;;;7.27;5.67;;;16.70;99.90;;;;;;5030923;28;20580;-72
2023/05/10 11:53:54;;;;;;;9.00;6.03;;;16.70;99.90;;;;;;5046338;28;20378;-71
2023/05/10 11:56:20;;;;;;;6.40;5.43;;;16.90;99.90;;;;;;5047354;28;20478;-71
2023/05/10 11:58:56;;;;;;;6.43;5.10;;;17.00;99.90;;;;;;5052831;28;20283;-71
2023/05/10 12:01:22;;;;;;;7.07;5.90;;;17.00;99.90;;;;;;5035871;28;20330;-72
2023/05/10 12:03:51;;;;;;;7.93;5.73;;;17.00;99.90;;;;;;5032666;28;20299;-71
2023/05/10 12:06:19;;;;;;;5.90;5.30;;;16.80;99.90;;;;;;5047662;28;20664;-71
2023/05/10 12:08:46;;;;;;;7.03;6.17;;;16.70;99.90;;;;;;5027978;28;20280;-71
2023/05/10 12:11:15;;;;;;;8.00;5.77;;;16.60;99.90;;;;;;5045631;28;20291;-71
2023/05/10 12:13:43;;;;;;;8.10;5.60;;;16.70;99.90;;;;;;5050091;28;20351;-72
2023/05/10 12:16:23;;;;;;;5.90;5.30;;;16.90;99.90;;;;;;5030065;28;20771;-72
2023/05/10 12:18:55;;;;;;;5.37;4.43;;;17.10;99.90;;;;;;5050545;28;20283;-72
2023/05/10 12:21:21;;;;;;;6.30;5.33;;;17.10;99.90;;;;;;5033614;28;20285;-72
2023/05/10 12:23:52;;;;;;;5.33;4.77;;;17.00;99.90;;;;;;5031806;28;20377;-72
2023/05/10 12:26:21;;;;;;;7.33;5.60;;;17.20;99.90;;;;;;5043524;28;20275;-72
2023/05/10 12:28:47;;;;;;;6.73;5.63;;;17.40;99.90;;;;;;5033091;28;20358;-71
2023/05/10 12:31:13;;;;;;;5.83;5.20;;;17.50;99.90;;;;;;5033811;28;20040;-71
2023/05/10 12:33:43;;;;;;;6.00;5.40;;;17.60;99.90;;;;;;5043318;28;20488;-71
2023/05/10 12:36:14;;;;;;;6.53;5.57;;;17.80;99.90;;;;;;5031240;28;20040;-71
2023/05/10 12:38:42;;;;;;;6.67;5.93;;;17.90;99.90;;;;;;5046557;28;20037;-72
2023/05/10 12:41:15;;;;;;;8.70;7.13;;;18.10;99.90;;;;;;5049364;28;20120;-72
2023/05/10 12:43:41;;;;;;;9.77;7.40;;;18.10;99.90;;;;;;5048967;28;20547;-72
2023/05/10 12:46:13;;;;;;;9.03;6.63;;;18.20;99.90;;;;;;5050998;28;20029;-72
2023/05/10 12:48:40;;;;;;;7.83;6.07;;;18.40;99.90;;;;;;5024393;28;20132;-72